sensor_id;sensor_type;location;lat;lon;timestamp;P1;durP1;ratioP1;P2;durP2;ratioP2
9500;SDS011;4788;52.438;9.846;2023-02-18T00:00:37;20.87;;;18.97;;
9500;SDS011;4788;52.438;9.846;2023-02-18T00:03:03;17.90;;;16.40;;
9500;SDS011;4788;52.438;9.846;2023-02-18T00:05:29;29.27;;;26.23;;
9500;SDS011;4788;52.438;9.846;2023-02-18T00:07:55;20.53;;;18.73;;
9500;SDS011;4788;52.438;9.846;2023-02-18T00:10:21;19.10;;;17.40;;
9500;SDS011;4788;52.438;9.846;2023-02-18T00:12:47;24.33;;;21.93;;
9500;SDS011;4788;52.438;9.846;2023-02-18T00:15:13;19.93;;;18.13;;
9500;SDS011;4788;52.438;9.846;2023-02-18T00:17:39;16.67;;;15.27;;
9500;SDS011;4788;52.438;9.846;2023-02-18T00:20:05;30.30;;;27.07;;
9500;SDS011;4788;52.438;9.846;2023-02-18T00:22:32;25.00;;;22.60;;
9500;SDS011;4788;52.438;9.846;2023-02-18T00:24:57;16.60;;;15.13;;
9500;SDS011;4788;52.438;9.846;2023-02-18T00:27:23;20.97;;;18.97;;
9500;SDS011;4788;52.438;9.846;2023-02-18T00:29:49;19.93;;;18.00;;
9500;SDS011;4788;52.438;9.846;2023-02-18T00:32:15;21.43;;;19.33;;
9500;SDS011;4788;52.438;9.846;2023-02-18T00:34:41;16.87;;;15.37;;
9500;SDS011;4788;52.438;9.846;2023-02-18T00:37:07;17.10;;;15.50;;
9500;SDS011;4788;52.438;9.846;2023-02-18T00:39:33;12.83;;;11.83;;
9500;SDS011;4788;52.438;9.846;2023-02-18T00:41:59;13.67;;;12.57;;
9500;SDS011;4788;52.438;9.846;2023-02-18T00:44:25;14.33;;;13.13;;
9500;SDS011;4788;52.438;9.846;2023-02-18T00:46:51;13.53;;;12.37;;
9500;SDS011;4788;52.438;9.846;2023-02-18T00:49:17;17.33;;;15.73;;
9500;SDS011;4788;52.438;9.846;2023-02-18T00:51:43;20.47;;;18.50;;
9500;SDS011;4788;52.438;9.846;2023-02-18T00:54:09;20.60;;;18.77;;
9500;SDS011;4788;52.438;9.846;2023-02-18T00:56:35;13.37;;;12.40;;
9500;SDS011;4788;52.438;9.846;2023-02-18T00:59:01;17.60;;;16.03;;
9500;SDS011;4788;52.438;9.846;2023-02-18T01:01:27;16.57;;;15.23;;
9500;SDS011;4788;52.438;9.846;2023-02-18T01:03:53;11.63;;;10.73;;
9500;SDS011;4788;52.438;9.846;2023-02-18T01:06:19;11.73;;;10.83;;
9500;SDS011;4788;52.438;9.846;2023-02-18T01:08:46;13.37;;;12.30;;
9500;SDS011;4788;52.438;9.846;2023-02-18T01:11:12;9.57;;;8.90;;
9500;SDS011;4788;52.438;9.846;2023-02-18T01:13:38;14.23;;;13.00;;
9500;SDS011;4788;52.438;9.846;2023-02-18T01:16:04;23.23;;;20.83;;
9500;SDS011;4788;52.438;9.846;2023-02-18T01:18:31;13.60;;;12.50;;
9500;SDS011;4788;52.438;9.846;2023-02-18T01:20:57;19.47;;;17.63;;
9500;SDS011;4788;52.438;9.846;2023-02-18T01:23:23;12.73;;;11.80;;
9500;SDS011;4788;52.438;9.846;2023-02-18T01:25:49;15.77;;;14.37;;
9500;SDS011;4788;52.438;9.846;2023-02-18T01:28:15;15.10;;;13.80;;
9500;SDS011;4788;52.438;9.846;2023-02-18T01:30:41;18.47;;;16.77;;
9500;SDS011;4788;52.438;9.846;2023-02-18T01:33:07;24.07;;;21.70;;
9500;SDS011;4788;52.438;9.846;2023-02-18T01:35:33;19.27;;;17.63;;
9500;SDS011;4788;52.438;9.846;2023-02-18T01:38:01;17.90;;;16.30;;
9500;SDS011;4788;52.438;9.846;2023-02-18T01:40:28;39.93;;;33.63;;
9500;SDS011;4788;52.438;9.846;2023-02-18T01:42:54;26.83;;;24.07;;
9500;SDS011;4788;52.438;9.846;2023-02-18T01:46:04;20.20;;;18.40;;
9500;SDS011;4788;52.438;9.846;2023-02-18T01:48:14;19.53;;;17.83;;
9500;SDS011;4788;52.438;9.846;2023-02-18T01:53:35;20.07;;;18.27;;
9500;SDS011;4788;52.438;9.846;2023-02-18T01:56:02;15.67;;;14.40;;
9500;SDS011;4788;52.438;9.846;2023-02-18T01:58:29;16.53;;;15.13;;
9500;SDS011;4788;52.438;9.846;2023-02-18T02:00:56;19.93;;;18.03;;
9500;SDS011;4788;52.438;9.846;2023-02-18T02:03:21;22.10;;;19.90;;
9500;SDS011;4788;52.438;9.846;2023-02-18T02:05:47;16.73;;;15.17;;
9500;SDS011;4788;52.438;9.846;2023-02-18T02:08:13;23.60;;;21.20;;
9500;SDS011;4788;52.438;9.846;2023-02-18T02:10:46;23.10;;;20.77;;
9500;SDS011;4788;52.438;9.846;2023-02-18T02:13:22;16.83;;;15.37;;
9500;SDS011;4788;52.438;9.846;2023-02-18T02:15:57;18.30;;;16.57;;
9500;SDS011;4788;52.438;9.846;2023-02-18T02:21:14;17.80;;;16.23;;
9500;SDS011;4788;52.438;9.846;2023-02-18T02:31:57;13.60;;;12.50;;
9500;SDS011;4788;52.438;9.846;2023-02-18T02:34:33;27.93;;;25.13;;
9500;SDS011;4788;52.438;9.846;2023-02-18T02:42:06;25.30;;;22.70;;
9500;SDS011;4788;52.438;9.846;2023-02-18T02:44:53;25.10;;;22.47;;
9500;SDS011;4788;52.438;9.846;2023-02-18T02:47:32;28.67;;;25.33;;
9500;SDS011;4788;52.438;9.846;2023-02-18T02:52:26;24.87;;;22.37;;
9500;SDS011;4788;52.438;9.846;2023-02-18T02:54:53;28.17;;;25.30;;
9500;SDS011;4788;52.438;9.846;2023-02-18T02:59:46;26.73;;;23.87;;
9500;SDS011;4788;52.438;9.846;2023-02-18T03:07:46;26.30;;;23.63;;
9500;SDS011;4788;52.438;9.846;2023-02-18T03:10:24;31.33;;;27.93;;
9500;SDS011;4788;52.438;9.846;2023-02-18T03:13:03;45.07;;;37.13;;
9500;SDS011;4788;52.438;9.846;2023-02-18T03:18:25;26.43;;;23.23;;
9500;SDS011;4788;52.438;9.846;2023-02-18T03:20:54;35.97;;;30.00;;
9500;SDS011;4788;52.438;9.846;2023-02-18T03:23:23;36.70;;;32.23;;
9500;SDS011;4788;52.438;9.846;2023-02-18T03:25:51;27.17;;;24.17;;
9500;SDS011;4788;52.438;9.846;2023-02-18T03:28:19;27.53;;;24.37;;
9500;SDS011;4788;52.438;9.846;2023-02-18T03:30:50;28.97;;;24.00;;
9500;SDS011;4788;52.438;9.846;2023-02-18T03:33:17;32.57;;;27.07;;
9500;SDS011;4788;52.438;9.846;2023-02-18T03:35:45;35.67;;;29.13;;
9500;SDS011;4788;52.438;9.846;2023-02-18T03:38:19;32.97;;;27.87;;
9500;SDS011;4788;52.438;9.846;2023-02-18T03:40:46;27.27;;;23.90;;
9500;SDS011;4788;52.438;9.846;2023-02-18T03:43:12;40.30;;;31.97;;
9500;SDS011;4788;52.438;9.846;2023-02-18T03:45:38;40.33;;;32.63;;
9500;SDS011;4788;52.438;9.846;2023-02-18T03:48:04;35.00;;;29.00;;
9500;SDS011;4788;52.438;9.846;2023-02-18T03:50:30;25.70;;;22.77;;
9500;SDS011;4788;52.438;9.846;2023-02-18T03:52:56;31.67;;;26.53;;
9500;SDS011;4788;52.438;9.846;2023-02-18T03:55:22;33.43;;;28.10;;
9500;SDS011;4788;52.438;9.846;2023-02-18T03:57:48;34.67;;;28.30;;
9500;SDS011;4788;52.438;9.846;2023-02-18T04:00:14;30.70;;;26.67;;
9500;SDS011;4788;52.438;9.846;2023-02-18T04:02:40;35.33;;;29.70;;
9500;SDS011;4788;52.438;9.846;2023-02-18T04:05:06;42.03;;;34.77;;
9500;SDS011;4788;52.438;9.846;2023-02-18T04:07:33;41.80;;;34.77;;
9500;SDS011;4788;52.438;9.846;2023-02-18T04:09:59;36.20;;;30.20;;
9500;SDS011;4788;52.438;9.846;2023-02-18T04:12:25;35.40;;;29.83;;
9500;SDS011;4788;52.438;9.846;2023-02-18T04:14:51;23.97;;;21.83;;
9500;SDS011;4788;52.438;9.846;2023-02-18T04:17:17;28.10;;;25.57;;
9500;SDS011;4788;52.438;9.846;2023-02-18T04:19:43;20.63;;;18.90;;
9500;SDS011;4788;52.438;9.846;2023-02-18T04:22:09;17.30;;;15.90;;
9500;SDS011;4788;52.438;9.846;2023-02-18T04:24:35;20.43;;;18.70;;
9500;SDS011;4788;52.438;9.846;2023-02-18T04:27:01;19.87;;;18.17;;
9500;SDS011;4788;52.438;9.846;2023-02-18T04:29:27;19.13;;;17.53;;
9500;SDS011;4788;52.438;9.846;2023-02-18T04:31:52;26.67;;;24.27;;
9500;SDS011;4788;52.438;9.846;2023-02-18T04:34:18;22.17;;;20.27;;
9500;SDS011;4788;52.438;9.846;2023-02-18T04:36:44;27.07;;;24.70;;
9500;SDS011;4788;52.438;9.846;2023-02-18T04:39:10;16.40;;;15.10;;
9500;SDS011;4788;52.438;9.846;2023-02-18T04:41:36;15.87;;;14.67;;
9500;SDS011;4788;52.438;9.846;2023-02-18T04:44:02;19.77;;;18.23;;
9500;SDS011;4788;52.438;9.846;2023-02-18T04:46:28;15.40;;;14.30;;
9500;SDS011;4788;52.438;9.846;2023-02-18T04:48:55;19.70;;;18.13;;
9500;SDS011;4788;52.438;9.846;2023-02-18T04:51:20;17.57;;;16.23;;
9500;SDS011;4788;52.438;9.846;2023-02-18T04:53:46;17.10;;;15.80;;
9500;SDS011;4788;52.438;9.846;2023-02-18T04:56:12;25.97;;;23.67;;
9500;SDS011;4788;52.438;9.846;2023-02-18T04:58:38;11.13;;;10.37;;
9500;SDS011;4788;52.438;9.846;2023-02-18T05:01:05;21.53;;;19.77;;
9500;SDS011;4788;52.438;9.846;2023-02-18T05:03:31;24.93;;;22.87;;
9500;SDS011;4788;52.438;9.846;2023-02-18T05:05:57;27.43;;;25.03;;
9500;SDS011;4788;52.438;9.846;2023-02-18T05:08:23;19.90;;;18.30;;
9500;SDS011;4788;52.438;9.846;2023-02-18T05:10:49;26.40;;;24.10;;
9500;SDS011;4788;52.438;9.846;2023-02-18T05:13:15;27.23;;;24.77;;
9500;SDS011;4788;52.438;9.846;2023-02-18T05:15:41;26.47;;;24.00;;
9500;SDS011;4788;52.438;9.846;2023-02-18T05:18:07;22.83;;;20.97;;
9500;SDS011;4788;52.438;9.846;2023-02-18T05:20:33;20.07;;;18.47;;
9500;SDS011;4788;52.438;9.846;2023-02-18T05:22:59;23.23;;;21.00;;
9500;SDS011;4788;52.438;9.846;2023-02-18T05:25:25;23.57;;;21.37;;
9500;SDS011;4788;52.438;9.846;2023-02-18T05:27:51;22.43;;;20.43;;
9500;SDS011;4788;52.438;9.846;2023-02-18T05:30:17;34.37;;;31.10;;
9500;SDS011;4788;52.438;9.846;2023-02-18T05:32:44;34.93;;;31.50;;
9500;SDS011;4788;52.438;9.846;2023-02-18T05:35:10;22.50;;;20.50;;
9500;SDS011;4788;52.438;9.846;2023-02-18T05:37:37;25.60;;;23.30;;
9500;SDS011;4788;52.438;9.846;2023-02-18T05:40:04;22.57;;;20.57;;
9500;SDS011;4788;52.438;9.846;2023-02-18T05:42:30;29.57;;;26.87;;
9500;SDS011;4788;52.438;9.846;2023-02-18T05:44:57;25.67;;;23.33;;
9500;SDS011;4788;52.438;9.846;2023-02-18T05:47:23;25.40;;;23.17;;
9500;SDS011;4788;52.438;9.846;2023-02-18T05:49:49;23.97;;;21.97;;
9500;SDS011;4788;52.438;9.846;2023-02-18T05:52:15;19.23;;;17.73;;
9500;SDS011;4788;52.438;9.846;2023-02-18T05:54:41;18.50;;;17.10;;
9500;SDS011;4788;52.438;9.846;2023-02-18T05:57:08;19.03;;;17.53;;
9500;SDS011;4788;52.438;9.846;2023-02-18T05:59:34;18.63;;;17.17;;
9500;SDS011;4788;52.438;9.846;2023-02-18T06:02:00;17.17;;;15.87;;
9500;SDS011;4788;52.438;9.846;2023-02-18T06:04:26;15.77;;;14.67;;
9500;SDS011;4788;52.438;9.846;2023-02-18T06:06:52;19.03;;;17.53;;
9500;SDS011;4788;52.438;9.846;2023-02-18T06:09:18;24.67;;;22.60;;
9500;SDS011;4788;52.438;9.846;2023-02-18T06:11:44;15.70;;;14.57;;
9500;SDS011;4788;52.438;9.846;2023-02-18T06:14:10;24.20;;;22.20;;
9500;SDS011;4788;52.438;9.846;2023-02-18T06:16:36;21.07;;;19.40;;
9500;SDS011;4788;52.438;9.846;2023-02-18T06:19:02;19.43;;;17.93;;
9500;SDS011;4788;52.438;9.846;2023-02-18T06:21:28;18.57;;;17.13;;
9500;SDS011;4788;52.438;9.846;2023-02-18T06:23:54;23.27;;;21.30;;
9500;SDS011;4788;52.438;9.846;2023-02-18T06:26:20;23.30;;;21.40;;
9500;SDS011;4788;52.438;9.846;2023-02-18T06:28:46;16.70;;;15.40;;
9500;SDS011;4788;52.438;9.846;2023-02-18T06:31:12;13.90;;;12.93;;
9500;SDS011;4788;52.438;9.846;2023-02-18T06:33:38;18.90;;;17.50;;
9500;SDS011;4788;52.438;9.846;2023-02-18T06:36:05;19.73;;;18.13;;
9500;SDS011;4788;52.438;9.846;2023-02-18T06:38:32;30.70;;;27.93;;
9500;SDS011;4788;52.438;9.846;2023-02-18T06:40:58;29.17;;;26.53;;
9500;SDS011;4788;52.438;9.846;2023-02-18T06:43:24;23.67;;;21.57;;
9500;SDS011;4788;52.438;9.846;2023-02-18T06:45:50;19.97;;;18.37;;
9500;SDS011;4788;52.438;9.846;2023-02-18T06:48:16;23.17;;;21.17;;
9500;SDS011;4788;52.438;9.846;2023-02-18T06:50:43;19.33;;;17.73;;
9500;SDS011;4788;52.438;9.846;2023-02-18T06:53:09;24.47;;;22.27;;
9500;SDS011;4788;52.438;9.846;2023-02-18T06:55:35;31.00;;;28.17;;
9500;SDS011;4788;52.438;9.846;2023-02-18T06:58:01;26.60;;;24.13;;
9500;SDS011;4788;52.438;9.846;2023-02-18T07:00:27;25.33;;;23.13;;
9500;SDS011;4788;52.438;9.846;2023-02-18T07:02:53;27.10;;;24.63;;
9500;SDS011;4788;52.438;9.846;2023-02-18T07:05:19;25.13;;;22.93;;
9500;SDS011;4788;52.438;9.846;2023-02-18T07:07:45;24.43;;;22.30;;
9500;SDS011;4788;52.438;9.846;2023-02-18T07:10:11;23.60;;;21.50;;
9500;SDS011;4788;52.438;9.846;2023-02-18T07:12:37;22.93;;;20.93;;
9500;SDS011;4788;52.438;9.846;2023-02-18T07:15:03;19.67;;;18.07;;
9500;SDS011;4788;52.438;9.846;2023-02-18T07:17:29;20.57;;;18.87;;
9500;SDS011;4788;52.438;9.846;2023-02-18T07:19:55;21.73;;;19.93;;
9500;SDS011;4788;52.438;9.846;2023-02-18T07:22:21;20.00;;;18.40;;
9500;SDS011;4788;52.438;9.846;2023-02-18T07:24:53;19.83;;;18.23;;
9500;SDS011;4788;52.438;9.846;2023-02-18T07:27:19;20.23;;;18.63;;
9500;SDS011;4788;52.438;9.846;2023-02-18T07:29:46;23.17;;;21.20;;
9500;SDS011;4788;52.438;9.846;2023-02-18T07:32:12;27.43;;;25.07;;
9500;SDS011;4788;52.438;9.846;2023-02-18T07:34:38;28.33;;;25.83;;
9500;SDS011;4788;52.438;9.846;2023-02-18T07:37:04;25.10;;;22.93;;
9500;SDS011;4788;52.438;9.846;2023-02-18T07:39:34;20.57;;;18.87;;
9500;SDS011;4788;52.438;9.846;2023-02-18T07:42:01;23.97;;;21.87;;
9500;SDS011;4788;52.438;9.846;2023-02-18T07:44:27;25.93;;;23.67;;
9500;SDS011;4788;52.438;9.846;2023-02-18T07:46:53;21.73;;;19.93;;
9500;SDS011;4788;52.438;9.846;2023-02-18T07:49:19;21.57;;;19.73;;
9500;SDS011;4788;52.438;9.846;2023-02-18T07:51:48;21.07;;;19.30;;
9500;SDS011;4788;52.438;9.846;2023-02-18T07:54:15;21.87;;;20.07;;
9500;SDS011;4788;52.438;9.846;2023-02-18T07:56:42;25.37;;;23.23;;
9500;SDS011;4788;52.438;9.846;2023-02-18T07:59:09;20.17;;;18.57;;
9500;SDS011;4788;52.438;9.846;2023-02-18T08:01:35;21.97;;;20.20;;
9500;SDS011;4788;52.438;9.846;2023-02-18T08:04:01;26.93;;;24.60;;
9500;SDS011;4788;52.438;9.846;2023-02-18T08:06:28;21.40;;;19.60;;
9500;SDS011;4788;52.438;9.846;2023-02-18T08:08:55;18.27;;;16.90;;
9500;SDS011;4788;52.438;9.846;2023-02-18T08:11:21;25.17;;;23.00;;
9500;SDS011;4788;52.438;9.846;2023-02-18T08:13:48;26.30;;;24.00;;
9500;SDS011;4788;52.438;9.846;2023-02-18T08:16:15;17.63;;;16.33;;
9500;SDS011;4788;52.438;9.846;2023-02-18T08:18:42;20.07;;;18.47;;
9500;SDS011;4788;52.438;9.846;2023-02-18T08:21:08;18.43;;;17.03;;
9500;SDS011;4788;52.438;9.846;2023-02-18T08:23:34;21.13;;;19.43;;
9500;SDS011;4788;52.438;9.846;2023-02-18T08:25:59;23.93;;;21.97;;
9500;SDS011;4788;52.438;9.846;2023-02-18T08:28:25;19.87;;;18.27;;
9500;SDS011;4788;52.438;9.846;2023-02-18T08:30:52;19.03;;;17.53;;
9500;SDS011;4788;52.438;9.846;2023-02-18T08:33:18;25.87;;;23.57;;
9500;SDS011;4788;52.438;9.846;2023-02-18T08:35:44;22.33;;;20.43;;
9500;SDS011;4788;52.438;9.846;2023-02-18T08:38:11;24.90;;;22.80;;
9500;SDS011;4788;52.438;9.846;2023-02-18T08:40:37;20.33;;;18.73;;
9500;SDS011;4788;52.438;9.846;2023-02-18T08:43:04;17.17;;;15.93;;
9500;SDS011;4788;52.438;9.846;2023-02-18T08:45:31;22.07;;;20.30;;
9500;SDS011;4788;52.438;9.846;2023-02-18T08:47:56;17.27;;;15.90;;
9500;SDS011;4788;52.438;9.846;2023-02-18T08:50:22;14.80;;;13.77;;
9500;SDS011;4788;52.438;9.846;2023-02-18T08:52:53;16.40;;;15.03;;
9500;SDS011;4788;52.438;9.846;2023-02-18T08:55:19;27.57;;;25.10;;
9500;SDS011;4788;52.438;9.846;2023-02-18T08:57:46;30.57;;;27.73;;
9500;SDS011;4788;52.438;9.846;2023-02-18T09:00:13;21.57;;;19.73;;
9500;SDS011;4788;52.438;9.846;2023-02-18T09:02:39;9.30;;;8.47;;
9500;SDS011;4788;52.438;9.846;2023-02-18T09:05:05;10.07;;;9.17;;
9500;SDS011;4788;52.438;9.846;2023-02-18T09:07:33;8.77;;;8.00;;
9500;SDS011;4788;52.438;9.846;2023-02-18T09:09:59;12.90;;;11.60;;
9500;SDS011;4788;52.438;9.846;2023-02-18T09:12:25;2.27;;;2.17;;
9500;SDS011;4788;52.438;9.846;2023-02-18T09:14:51;11.57;;;10.50;;
9500;SDS011;4788;52.438;9.846;2023-02-18T09:17:17;5.23;;;4.83;;
9500;SDS011;4788;52.438;9.846;2023-02-18T09:19:43;5.40;;;4.93;;
9500;SDS011;4788;52.438;9.846;2023-02-18T09:22:09;5.20;;;4.80;;
9500;SDS011;4788;52.438;9.846;2023-02-18T09:24:35;16.33;;;14.63;;
9500;SDS011;4788;52.438;9.846;2023-02-18T09:27:02;3.67;;;3.40;;
9500;SDS011;4788;52.438;9.846;2023-02-18T09:29:28;2.90;;;2.70;;
9500;SDS011;4788;52.438;9.846;2023-02-18T09:31:54;6.27;;;5.73;;
9500;SDS011;4788;52.438;9.846;2023-02-18T09:34:20;10.90;;;9.87;;
9500;SDS011;4788;52.438;9.846;2023-02-18T09:36:46;7.43;;;6.77;;
9500;SDS011;4788;52.438;9.846;2023-02-18T09:39:12;3.73;;;3.47;;
9500;SDS011;4788;52.438;9.846;2023-02-18T09:41:40;12.07;;;11.27;;
9500;SDS011;4788;52.438;9.846;2023-02-18T09:46:40;13.80;;;12.70;;
9500;SDS011;4788;52.438;9.846;2023-02-18T09:49:12;17.20;;;15.80;;
9500;SDS011;4788;52.438;9.846;2023-02-18T09:51:39;16.37;;;15.07;;
9500;SDS011;4788;52.438;9.846;2023-02-18T09:54:08;3.77;;;3.57;;
9500;SDS011;4788;52.438;9.846;2023-02-18T09:56:34;5.10;;;4.70;;
9500;SDS011;4788;52.438;9.846;2023-02-18T09:59:03;8.97;;;8.07;;
9500;SDS011;4788;52.438;9.846;2023-02-18T10:01:34;5.63;;;5.23;;
9500;SDS011;4788;52.438;9.846;2023-02-18T10:04:43;17.70;;;15.90;;
9500;SDS011;4788;52.438;9.846;2023-02-18T10:06:51;9.70;;;8.80;;
9500;SDS011;4788;52.438;9.846;2023-02-18T10:09:18;14.33;;;12.90;;
9500;SDS011;4788;52.438;9.846;2023-02-18T10:11:47;4.23;;;3.90;;
9500;SDS011;4788;52.438;9.846;2023-02-18T10:14:13;8.63;;;7.87;;
9500;SDS011;4788;52.438;9.846;2023-02-18T10:16:40;3.57;;;3.37;;
9500;SDS011;4788;52.438;9.846;2023-02-18T10:19:23;5.37;;;4.93;;
9500;SDS011;4788;52.438;9.846;2023-02-18T10:21:50;8.00;;;7.33;;
9500;SDS011;4788;52.438;9.846;2023-02-18T10:24:39;7.73;;;7.07;;
9500;SDS011;4788;52.438;9.846;2023-02-18T10:27:04;1.97;;;1.87;;
9500;SDS011;4788;52.438;9.846;2023-02-18T10:29:30;4.20;;;3.90;;
9500;SDS011;4788;52.438;9.846;2023-02-18T10:40:11;7.23;;;6.60;;
9500;SDS011;4788;52.438;9.846;2023-02-18T10:42:44;4.87;;;4.50;;
9500;SDS011;4788;52.438;9.846;2023-02-18T10:45:20;5.93;;;5.43;;
9500;SDS011;4788;52.438;9.846;2023-02-18T10:47:59;14.43;;;13.03;;
9500;SDS011;4788;52.438;9.846;2023-02-18T10:50:39;7.53;;;6.90;;
9500;SDS011;4788;52.438;9.846;2023-02-18T10:53:13;4.27;;;3.97;;
9500;SDS011;4788;52.438;9.846;2023-02-18T10:55:41;10.73;;;9.70;;
9500;SDS011;4788;52.438;9.846;2023-02-18T11:00:52;8.67;;;7.87;;
9500;SDS011;4788;52.438;9.846;2023-02-18T11:03:19;8.17;;;7.47;;
9500;SDS011;4788;52.438;9.846;2023-02-18T11:05:47;8.20;;;7.43;;
9500;SDS011;4788;52.438;9.846;2023-02-18T11:08:15;6.63;;;6.00;;
9500;SDS011;4788;52.438;9.846;2023-02-18T11:10:42;9.40;;;8.57;;
9500;SDS011;4788;52.438;9.846;2023-02-18T11:13:11;14.67;;;13.27;;
9500;SDS011;4788;52.438;9.846;2023-02-18T11:15:37;29.90;;;27.13;;
9500;SDS011;4788;52.438;9.846;2023-02-18T11:18:29;25.03;;;22.90;;
9500;SDS011;4788;52.438;9.846;2023-02-18T11:20:56;29.20;;;26.37;;
9500;SDS011;4788;52.438;9.846;2023-02-18T11:23:22;8.07;;;7.33;;
9500;SDS011;4788;52.438;9.846;2023-02-18T11:30:48;8.93;;;8.13;;
9500;SDS011;4788;52.438;9.846;2023-02-18T11:35:48;15.07;;;13.53;;
9500;SDS011;4788;52.438;9.846;2023-02-18T11:38:17;12.03;;;10.90;;
9500;SDS011;4788;52.438;9.846;2023-02-18T11:40:52;21.50;;;19.30;;
9500;SDS011;4788;52.438;9.846;2023-02-18T11:43:19;17.73;;;16.23;;
9500;SDS011;4788;52.438;9.846;2023-02-18T11:45:45;15.83;;;14.50;;
9500;SDS011;4788;52.438;9.846;2023-02-18T11:48:14;19.90;;;18.20;;
9500;SDS011;4788;52.438;9.846;2023-02-18T11:50:40;18.93;;;17.23;;
9500;SDS011;4788;52.438;9.846;2023-02-18T11:53:24;19.33;;;17.60;;
9500;SDS011;4788;52.438;9.846;2023-02-18T11:55:54;17.20;;;15.70;;
9500;SDS011;4788;52.438;9.846;2023-02-18T11:58:21;22.07;;;20.00;;
9500;SDS011;4788;52.438;9.846;2023-02-18T12:00:47;15.83;;;14.47;;
9500;SDS011;4788;52.438;9.846;2023-02-18T12:05:50;17.70;;;16.10;;
9500;SDS011;4788;52.438;9.846;2023-02-18T12:08:21;15.00;;;13.67;;
9500;SDS011;4788;52.438;9.846;2023-02-18T12:10:49;17.17;;;15.67;;
9500;SDS011;4788;52.438;9.846;2023-02-18T12:13:27;10.57;;;9.80;;
9500;SDS011;4788;52.438;9.846;2023-02-18T12:16:03;14.53;;;13.33;;
9500;SDS011;4788;52.438;9.846;2023-02-18T12:18:39;12.70;;;11.70;;
9500;SDS011;4788;52.438;9.846;2023-02-18T12:23:49;9.43;;;8.63;;
9500;SDS011;4788;52.438;9.846;2023-02-18T12:26:25;20.10;;;18.00;;
9500;SDS011;4788;52.438;9.846;2023-02-18T12:29:00;9.00;;;8.17;;
9500;SDS011;4788;52.438;9.846;2023-02-18T12:44:39;22.13;;;20.07;;
9500;SDS011;4788;52.438;9.846;2023-02-18T12:59:51;15.17;;;13.80;;
9500;SDS011;4788;52.438;9.846;2023-02-18T13:04:57;14.80;;;13.50;;
9500;SDS011;4788;52.438;9.846;2023-02-18T13:08:10;12.50;;;11.57;;
9500;SDS011;4788;52.438;9.846;2023-02-18T13:10:36;24.87;;;22.53;;
9500;SDS011;4788;52.438;9.846;2023-02-18T13:13:10;18.10;;;16.57;;
9500;SDS011;4788;52.438;9.846;2023-02-18T13:15:47;13.03;;;12.03;;
9500;SDS011;4788;52.438;9.846;2023-02-18T13:18:17;15.87;;;14.67;;
9500;SDS011;4788;52.438;9.846;2023-02-18T13:20:54;21.47;;;19.67;;
9500;SDS011;4788;52.438;9.846;2023-02-18T13:23:22;21.03;;;19.23;;
9500;SDS011;4788;52.438;9.846;2023-02-18T13:25:50;15.47;;;14.27;;
9500;SDS011;4788;52.438;9.846;2023-02-18T13:28:22;15.47;;;14.27;;
9500;SDS011;4788;52.438;9.846;2023-02-18T13:30:54;15.03;;;13.83;;
9500;SDS011;4788;52.438;9.846;2023-02-18T13:36:24;16.00;;;14.80;;
9500;SDS011;4788;52.438;9.846;2023-02-18T13:38:55;17.53;;;16.13;;
9500;SDS011;4788;52.438;9.846;2023-02-18T13:41:24;18.57;;;17.07;;
9500;SDS011;4788;52.438;9.846;2023-02-18T13:43:51;18.93;;;17.33;;
9500;SDS011;4788;52.438;9.846;2023-02-18T13:46:18;20.87;;;19.10;;
9500;SDS011;4788;52.438;9.846;2023-02-18T13:48:49;17.27;;;15.87;;
9500;SDS011;4788;52.438;9.846;2023-02-18T13:51:57;17.67;;;16.27;;
9500;SDS011;4788;52.438;9.846;2023-02-18T13:54:15;19.20;;;17.57;;
9500;SDS011;4788;52.438;9.846;2023-02-18T13:56:44;17.50;;;16.03;;
9500;SDS011;4788;52.438;9.846;2023-02-18T13:59:18;20.93;;;19.17;;
9500;SDS011;4788;52.438;9.846;2023-02-18T14:01:46;13.27;;;12.33;;
9500;SDS011;4788;52.438;9.846;2023-02-18T14:07:16;21.53;;;19.70;;
9500;SDS011;4788;52.438;9.846;2023-02-18T14:09:47;17.40;;;15.97;;
9500;SDS011;4788;52.438;9.846;2023-02-18T14:14:42;16.90;;;15.53;;
9500;SDS011;4788;52.438;9.846;2023-02-18T14:19:54;18.77;;;17.23;;
9500;SDS011;4788;52.438;9.846;2023-02-18T14:22:25;24.27;;;22.03;;
9500;SDS011;4788;52.438;9.846;2023-02-18T14:24:55;19.23;;;17.63;;
9500;SDS011;4788;52.438;9.846;2023-02-18T14:27:21;17.90;;;16.40;;
9500;SDS011;4788;52.438;9.846;2023-02-18T14:29:50;16.87;;;15.47;;
9500;SDS011;4788;52.438;9.846;2023-02-18T14:32:16;17.07;;;15.67;;
9500;SDS011;4788;52.438;9.846;2023-02-18T14:40:32;15.90;;;14.63;;
9500;SDS011;4788;52.438;9.846;2023-02-18T14:43:15;21.23;;;19.30;;
9500;SDS011;4788;52.438;9.846;2023-02-18T14:51:03;12.40;;;11.50;;
9500;SDS011;4788;52.438;9.846;2023-02-18T14:53:30;13.07;;;12.07;;
9500;SDS011;4788;52.438;9.846;2023-02-18T14:55:58;13.93;;;12.83;;
9500;SDS011;4788;52.438;9.846;2023-02-18T14:58:58;10.63;;;9.93;;
9500;SDS011;4788;52.438;9.846;2023-02-18T15:01:18;15.83;;;14.53;;
9500;SDS011;4788;52.438;9.846;2023-02-18T15:03:45;12.37;;;11.37;;
9500;SDS011;4788;52.438;9.846;2023-02-18T15:06:21;13.33;;;12.27;;
9500;SDS011;4788;52.438;9.846;2023-02-18T15:08:48;13.63;;;12.43;;
9500;SDS011;4788;52.438;9.846;2023-02-18T15:11:13;12.70;;;11.70;;
9500;SDS011;4788;52.438;9.846;2023-02-18T15:13:41;13.50;;;12.37;;
9500;SDS011;4788;52.438;9.846;2023-02-18T15:16:08;10.83;;;10.03;;
9500;SDS011;4788;52.438;9.846;2023-02-18T15:18:42;17.40;;;15.87;;
9500;SDS011;4788;52.438;9.846;2023-02-18T15:23:47;11.83;;;10.90;;
9500;SDS011;4788;52.438;9.846;2023-02-18T15:26:14;19.20;;;17.57;;
9500;SDS011;4788;52.438;9.846;2023-02-18T15:28:54;19.50;;;17.80;;
9500;SDS011;4788;52.438;9.846;2023-02-18T15:31:23;17.87;;;16.37;;
9500;SDS011;4788;52.438;9.846;2023-02-18T15:33:49;19.10;;;17.50;;
9500;SDS011;4788;52.438;9.846;2023-02-18T15:36:15;10.80;;;10.00;;
9500;SDS011;4788;52.438;9.846;2023-02-18T15:38:41;8.93;;;8.27;;
9500;SDS011;4788;52.438;9.846;2023-02-18T15:41:15;11.13;;;10.20;;
9500;SDS011;4788;52.438;9.846;2023-02-18T15:43:56;9.03;;;8.40;;
9500;SDS011;4788;52.438;9.846;2023-02-18T15:46:24;8.03;;;7.47;;
9500;SDS011;4788;52.438;9.846;2023-02-18T15:48:51;15.53;;;14.07;;
9500;SDS011;4788;52.438;9.846;2023-02-18T15:51:19;13.57;;;12.37;;
9500;SDS011;4788;52.438;9.846;2023-02-18T15:53:47;10.20;;;9.33;;
9500;SDS011;4788;52.438;9.846;2023-02-18T15:56:19;11.00;;;10.07;;
9500;SDS011;4788;52.438;9.846;2023-02-18T15:58:46;17.03;;;15.73;;
9500;SDS011;4788;52.438;9.846;2023-02-18T16:01:27;18.43;;;17.00;;
9500;SDS011;4788;52.438;9.846;2023-02-18T16:03:54;17.33;;;15.93;;
9500;SDS011;4788;52.438;9.846;2023-02-18T16:06:24;19.63;;;17.97;;
9500;SDS011;4788;52.438;9.846;2023-02-18T16:11:50;27.57;;;25.07;;
9500;SDS011;4788;52.438;9.846;2023-02-18T16:14:23;18.80;;;17.30;;
9500;SDS011;4788;52.438;9.846;2023-02-18T16:17:11;19.10;;;17.50;;
9500;SDS011;4788;52.438;9.846;2023-02-18T16:19:49;26.53;;;24.13;;
9500;SDS011;4788;52.438;9.846;2023-02-18T16:22:34;17.77;;;16.27;;
9500;SDS011;4788;52.438;9.846;2023-02-18T16:30:37;18.80;;;17.30;;
9500;SDS011;4788;52.438;9.846;2023-02-18T16:33:05;23.83;;;21.70;;
9500;SDS011;4788;52.438;9.846;2023-02-18T16:35:31;20.93;;;19.13;;
9500;SDS011;4788;52.438;9.846;2023-02-18T16:37:57;27.97;;;25.43;;
9500;SDS011;4788;52.438;9.846;2023-02-18T16:40:45;30.13;;;27.33;;
9500;SDS011;4788;52.438;9.846;2023-02-18T16:43:11;28.73;;;25.93;;
9500;SDS011;4788;52.438;9.846;2023-02-18T16:45:40;20.90;;;19.13;;
9500;SDS011;4788;52.438;9.846;2023-02-18T16:48:10;33.30;;;29.87;;
9500;SDS011;4788;52.438;9.846;2023-02-18T16:50:38;21.40;;;19.57;;
9500;SDS011;4788;52.438;9.846;2023-02-18T16:53:04;24.47;;;22.27;;
9500;SDS011;4788;52.438;9.846;2023-02-18T16:55:30;17.00;;;15.60;;
9500;SDS011;4788;52.438;9.846;2023-02-18T16:57:56;17.83;;;16.30;;